sensor_id;sensor_type;location;lat;lon;timestamp;P1;durP1;ratioP1;P2;durP2;ratioP2
80101;SDS011;69407;44.966;19.622;2023-11-19T09:36:04;9.95;;;6.50;;
80101;SDS011;69407;44.966;19.622;2023-11-19T09:38:30;10.23;;;6.65;;
80101;SDS011;69407;44.966;19.622;2023-11-19T09:40:55;8.07;;;5.32;;
80101;SDS011;69407;44.966;19.622;2023-11-19T09:43:22;9.68;;;6.57;;
80101;SDS011;69407;44.966;19.622;2023-11-19T09:45:48;8.80;;;5.22;;
80101;SDS011;69407;44.966;19.622;2023-11-19T09:48:17;9.00;;;6.07;;
80101;SDS011;69407;44.966;19.622;2023-11-19T09:50:44;9.10;;;5.32;;
80101;SDS011;69407;44.966;19.622;2023-11-19T09:55:37;9.35;;;5.53;;
80101;SDS011;69407;44.966;19.622;2023-11-19T09:58:02;8.18;;;5.10;;
80101;SDS011;69407;44.966;19.622;2023-11-19T10:00:28;8.50;;;5.70;;
80101;SDS011;69407;44.966;19.622;2023-11-19T10:02:55;9.23;;;6.38;;
80101;SDS011;69407;44.966;19.622;2023-11-19T10:05:22;9.90;;;5.88;;
80101;SDS011;69407;44.966;19.622;2023-11-19T10:07:49;7.72;;;4.75;;
80101;SDS011;69407;44.966;19.622;2023-11-19T10:10:15;10.30;;;6.55;;
80101;SDS011;69407;44.966;19.622;2023-11-19T10:12:44;9.88;;;5.25;;
80101;SDS011;69407;44.966;19.622;2023-11-19T10:15:19;7.78;;;4.30;;
80101;SDS011;69407;44.966;19.622;2023-11-19T10:17:47;7.57;;;4.25;;
80101;SDS011;69407;44.966;19.622;2023-11-19T10:20:13;8.25;;;4.22;;
80101;SDS011;69407;44.966;19.622;2023-11-19T10:22:39;9.02;;;5.47;;
80101;SDS011;69407;44.966;19.622;2023-11-19T10:27:50;4.38;;;2.83;;
80101;SDS011;69407;44.966;19.622;2023-11-19T10:30:22;6.65;;;4.00;;
80101;SDS011;69407;44.966;19.622;2023-11-19T10:33:07;5.63;;;3.50;;
80101;SDS011;69407;44.966;19.622;2023-11-19T10:35:35;6.53;;;4.35;;
80101;SDS011;69407;44.966;19.622;2023-11-19T10:38:14;9.52;;;6.25;;
80101;SDS011;69407;44.966;19.622;2023-11-19T10:40:43;6.95;;;4.30;;
80101;SDS011;69407;44.966;19.622;2023-11-19T10:43:08;7.45;;;4.18;;
80101;SDS011;69407;44.966;19.622;2023-11-19T10:45:34;9.32;;;4.85;;
80101;SDS011;69407;44.966;19.622;2023-11-19T10:48:01;7.47;;;4.90;;
80101;SDS011;69407;44.966;19.622;2023-11-19T10:50:31;9.18;;;5.75;;
80101;SDS011;69407;44.966;19.622;2023-11-19T10:53:01;16.15;;;9.35;;
80101;SDS011;69407;44.966;19.622;2023-11-19T10:55:34;8.98;;;4.85;;
80101;SDS011;69407;44.966;19.622;2023-11-19T10:58:04;8.32;;;5.50;;
80101;SDS011;69407;44.966;19.622;2023-11-19T11:03:06;8.43;;;4.72;;
80101;SDS011;69407;44.966;19.622;2023-11-19T11:05:35;7.38;;;3.90;;
80101;SDS011;69407;44.966;19.622;2023-11-19T11:08:03;6.60;;;4.13;;
80101;SDS011;69407;44.966;19.622;2023-11-19T11:10:32;10.73;;;6.82;;
80101;SDS011;69407;44.966;19.622;2023-11-19T11:13:04;7.35;;;4.43;;
80101;SDS011;69407;44.966;19.622;2023-11-19T11:15:30;5.45;;;3.75;;
80101;SDS011;69407;44.966;19.622;2023-11-19T11:18:00;5.95;;;4.22;;
80101;SDS011;69407;44.966;19.622;2023-11-19T11:20:30;6.38;;;4.68;;
80101;SDS011;69407;44.966;19.622;2023-11-19T11:36:19;6.35;;;3.40;;
80101;SDS011;69407;44.966;19.622;2023-11-19T11:38:48;10.48;;;8.23;;
80101;SDS011;69407;44.966;19.622;2023-11-19T11:41:21;7.35;;;4.07;;
80101;SDS011;69407;44.966;19.622;2023-11-19T11:43:49;8.93;;;5.35;;
80101;SDS011;69407;44.966;19.622;2023-11-19T11:59:37;8.65;;;4.57;;
80101;SDS011;69407;44.966;19.622;2023-11-19T12:02:08;14.95;;;8.15;;
80101;SDS011;69407;44.966;19.622;2023-11-19T12:04:35;8.52;;;4.80;;
80101;SDS011;69407;44.966;19.622;2023-11-19T12:07:14;10.10;;;4.75;;
80101;SDS011;69407;44.966;19.622;2023-11-19T12:09:42;7.45;;;4.03;;
80101;SDS011;69407;44.966;19.622;2023-11-19T12:12:22;7.45;;;4.43;;
80101;SDS011;69407;44.966;19.622;2023-11-19T12:19:59;7.68;;;4.35;;
80101;SDS011;69407;44.966;19.622;2023-11-19T12:22:40;6.57;;;4.05;;
80101;SDS011;69407;44.966;19.622;2023-11-19T12:25:07;7.80;;;3.60;;
80101;SDS011;69407;44.966;19.622;2023-11-19T12:27:34;3.47;;;2.50;;
80101;SDS011;69407;44.966;19.622;2023-11-19T12:30:00;6.30;;;3.10;;
80101;SDS011;69407;44.966;19.622;2023-11-19T12:32:37;5.28;;;2.83;;
80101;SDS011;69407;44.966;19.622;2023-11-19T12:35:06;10.63;;;3.08;;
80101;SDS011;69407;44.966;19.622;2023-11-19T12:37:38;8.13;;;3.42;;
80101;SDS011;69407;44.966;19.622;2023-11-19T12:40:16;10.80;;;5.75;;
80101;SDS011;69407;44.966;19.622;2023-11-19T12:42:49;14.60;;;7.55;;
80101;SDS011;69407;44.966;19.622;2023-11-19T12:45:15;18.58;;;9.07;;
80101;SDS011;69407;44.966;19.622;2023-11-19T12:47:42;20.80;;;10.13;;
80101;SDS011;69407;44.966;19.622;2023-11-19T12:50:09;7.38;;;3.40;;
80101;SDS011;69407;44.966;19.622;2023-11-19T12:52:35;4.55;;;2.80;;
80101;SDS011;69407;44.966;19.622;2023-11-19T12:55:05;5.40;;;2.20;;
80101;SDS011;69407;44.966;19.622;2023-11-19T13:00:18;6.70;;;2.90;;
80101;SDS011;69407;44.966;19.622;2023-11-19T13:02:49;3.50;;;2.08;;
80101;SDS011;69407;44.966;19.622;2023-11-19T13:05:31;6.90;;;3.85;;
80101;SDS011;69407;44.966;19.622;2023-11-19T13:10:28;5.97;;;3.80;;
80101;SDS011;69407;44.966;19.622;2023-11-19T13:15:29;48.22;;;21.88;;
80101;SDS011;69407;44.966;19.622;2023-11-19T13:17:54;8.38;;;5.10;;
80101;SDS011;69407;44.966;19.622;2023-11-19T13:20:20;5.85;;;2.90;;
80101;SDS011;69407;44.966;19.622;2023-11-19T13:25:25;6.53;;;3.08;;
80101;SDS011;69407;44.966;19.622;2023-11-19T13:27:51;4.20;;;2.38;;
80101;SDS011;69407;44.966;19.622;2023-11-19T13:30:17;4.00;;;2.00;;
80101;SDS011;69407;44.966;19.622;2023-11-19T13:32:43;4.28;;;2.42;;
80101;SDS011;69407;44.966;19.622;2023-11-19T13:35:11;8.32;;;3.88;;
80101;SDS011;69407;44.966;19.622;2023-11-19T13:37:37;7.43;;;4.97;;
80101;SDS011;69407;44.966;19.622;2023-11-19T13:40:03;11.65;;;7.88;;
80101;SDS011;69407;44.966;19.622;2023-11-19T13:42:29;14.45;;;7.55;;
80101;SDS011;69407;44.966;19.622;2023-11-19T13:44:54;5.78;;;3.45;;
80101;SDS011;69407;44.966;19.622;2023-11-19T13:47:21;7.53;;;5.20;;
80101;SDS011;69407;44.966;19.622;2023-11-19T13:49:47;9.35;;;5.15;;
80101;SDS011;69407;44.966;19.622;2023-11-19T13:52:12;7.18;;;3.83;;
80101;SDS011;69407;44.966;19.622;2023-11-19T13:54:38;14.90;;;7.55;;
80101;SDS011;69407;44.966;19.622;2023-11-19T13:57:03;11.85;;;6.45;;
80101;SDS011;69407;44.966;19.622;2023-11-19T13:59:29;14.45;;;7.82;;
80101;SDS011;69407;44.966;19.622;2023-11-19T14:01:57;13.93;;;7.78;;
80101;SDS011;69407;44.966;19.622;2023-11-19T14:04:22;10.95;;;5.22;;
80101;SDS011;69407;44.966;19.622;2023-11-19T14:06:48;7.75;;;3.97;;
80101;SDS011;69407;44.966;19.622;2023-11-19T14:09:14;5.22;;;3.03;;
80101;SDS011;69407;44.966;19.622;2023-11-19T14:11:40;6.80;;;4.32;;
80101;SDS011;69407;44.966;19.622;2023-11-19T14:14:07;7.97;;;4.88;;
80101;SDS011;69407;44.966;19.622;2023-11-19T14:16:33;8.80;;;3.70;;
80101;SDS011;69407;44.966;19.622;2023-11-19T14:18:59;5.18;;;2.80;;
80101;SDS011;69407;44.966;19.622;2023-11-19T14:21:25;15.57;;;6.80;;
80101;SDS011;69407;44.966;19.622;2023-11-19T14:23:51;10.18;;;4.90;;
80101;SDS011;69407;44.966;19.622;2023-11-19T14:26:17;66.40;;;25.02;;
80101;SDS011;69407;44.966;19.622;2023-11-19T14:28:43;13.30;;;9.77;;
80101;SDS011;69407;44.966;19.622;2023-11-19T14:31:09;10.30;;;6.45;;
80101;SDS011;69407;44.966;19.622;2023-11-19T14:33:34;5.60;;;3.60;;
80101;SDS011;69407;44.966;19.622;2023-11-19T14:36:01;10.48;;;5.78;;
80101;SDS011;69407;44.966;19.622;2023-11-19T14:38:27;6.35;;;3.22;;
80101;SDS011;69407;44.966;19.622;2023-11-19T14:40:52;7.15;;;5.07;;
80101;SDS011;69407;44.966;19.622;2023-11-19T14:43:17;8.85;;;5.10;;
80101;SDS011;69407;44.966;19.622;2023-11-19T14:45:43;9.50;;;5.45;;
80101;SDS011;69407;44.966;19.622;2023-11-19T14:48:09;19.83;;;13.32;;
80101;SDS011;69407;44.966;19.622;2023-11-19T14:50:35;29.98;;;17.45;;
80101;SDS011;69407;44.966;19.622;2023-11-19T14:53:01;19.88;;;12.23;;
80101;SDS011;69407;44.966;19.622;2023-11-19T14:55:28;10.68;;;5.72;;
80101;SDS011;69407;44.966;19.622;2023-11-19T14:57:54;8.98;;;4.35;;
80101;SDS011;69407;44.966;19.622;2023-11-19T15:00:19;68.10;;;39.30;;
80101;SDS011;69407;44.966;19.622;2023-11-19T15:02:46;70.22;;;35.03;;
80101;SDS011;69407;44.966;19.622;2023-11-19T15:05:11;21.30;;;12.70;;
80101;SDS011;69407;44.966;19.622;2023-11-19T15:07:38;14.70;;;7.05;;
80101;SDS011;69407;44.966;19.622;2023-11-19T15:10:05;45.75;;;23.83;;
80101;SDS011;69407;44.966;19.622;2023-11-19T15:12:38;26.77;;;16.42;;
80101;SDS011;69407;44.966;19.622;2023-11-19T15:15:08;21.52;;;12.05;;
80101;SDS011;69407;44.966;19.622;2023-11-19T15:17:43;19.40;;;10.70;;
80101;SDS011;69407;44.966;19.622;2023-11-19T15:20:08;16.08;;;9.50;;
80101;SDS011;69407;44.966;19.622;2023-11-19T15:22:34;14.25;;;8.82;;
80101;SDS011;69407;44.966;19.622;2023-11-19T15:25:00;11.00;;;5.63;;
80101;SDS011;69407;44.966;19.622;2023-11-19T15:27:26;13.73;;;6.88;;
80101;SDS011;69407;44.966;19.622;2023-11-19T15:29:52;12.50;;;8.05;;
80101;SDS011;69407;44.966;19.622;2023-11-19T15:32:17;17.73;;;9.57;;
80101;SDS011;69407;44.966;19.622;2023-11-19T15:34:43;33.17;;;17.75;;
80101;SDS011;69407;44.966;19.622;2023-11-19T15:37:08;45.75;;;22.65;;
80101;SDS011;69407;44.966;19.622;2023-11-19T15:39:37;28.25;;;14.38;;
80101;SDS011;69407;44.966;19.622;2023-11-19T15:42:02;18.83;;;10.48;;
80101;SDS011;69407;44.966;19.622;2023-11-19T15:44:28;20.70;;;10.60;;
80101;SDS011;69407;44.966;19.622;2023-11-19T15:46:54;14.32;;;7.93;;
80101;SDS011;69407;44.966;19.622;2023-11-19T15:49:20;10.52;;;6.32;;
80101;SDS011;69407;44.966;19.622;2023-11-19T15:51:45;15.95;;;9.80;;
80101;SDS011;69407;44.966;19.622;2023-11-19T15:54:11;30.35;;;16.42;;
80101;SDS011;69407;44.966;19.622;2023-11-19T15:56:36;26.30;;;16.35;;
80101;SDS011;69407;44.966;19.622;2023-11-19T15:59:02;32.83;;;17.95;;
80101;SDS011;69407;44.966;19.622;2023-11-19T16:01:29;54.83;;;26.88;;
80101;SDS011;69407;44.966;19.622;2023-11-19T16:03:55;92.38;;;43.75;;
80101;SDS011;69407;44.966;19.622;2023-11-19T16:06:21;50.25;;;19.92;;
80101;SDS011;69407;44.966;19.622;2023-11-19T16:08:48;27.20;;;13.25;;
80101;SDS011;69407;44.966;19.622;2023-11-19T16:11:15;95.40;;;39.35;;
80101;SDS011;69407;44.966;19.622;2023-11-19T16:13:42;254.00;;;115.35;;
80101;SDS011;69407;44.966;19.622;2023-11-19T16:16:07;154.95;;;71.50;;
80101;SDS011;69407;44.966;19.622;2023-11-19T16:18:33;46.08;;;25.27;;
80101;SDS011;69407;44.966;19.622;2023-11-19T16:20:59;33.92;;;17.70;;
80101;SDS011;69407;44.966;19.622;2023-11-19T16:23:24;38.83;;;22.17;;
80101;SDS011;69407;44.966;19.622;2023-11-19T16:25:52;46.78;;;31.15;;
80101;SDS011;69407;44.966;19.622;2023-11-19T16:28:18;63.47;;;35.50;;
80101;SDS011;69407;44.966;19.622;2023-11-19T16:30:44;22.92;;;11.57;;
80101;SDS011;69407;44.966;19.622;2023-11-19T16:33:10;24.20;;;13.02;;
80101;SDS011;69407;44.966;19.622;2023-11-19T16:35:35;25.60;;;13.55;;
80101;SDS011;69407;44.966;19.622;2023-11-19T16:38:01;21.90;;;11.70;;
80101;SDS011;69407;44.966;19.622;2023-11-19T16:40:27;17.88;;;11.85;;
80101;SDS011;69407;44.966;19.622;2023-11-19T16:42:52;20.50;;;11.38;;
80101;SDS011;69407;44.966;19.622;2023-11-19T16:45:18;24.63;;;10.75;;
80101;SDS011;69407;44.966;19.622;2023-11-19T16:47:44;23.17;;;12.45;;
80101;SDS011;69407;44.966;19.622;2023-11-19T16:50:12;20.50;;;10.68;;
80101;SDS011;69407;44.966;19.622;2023-11-19T16:52:41;18.85;;;11.25;;
80101;SDS011;69407;44.966;19.622;2023-11-19T16:55:07;24.95;;;12.10;;
80101;SDS011;69407;44.966;19.622;2023-11-19T16:57:39;33.70;;;15.65;;
80101;SDS011;69407;44.966;19.622;2023-11-19T17:00:06;29.00;;;14.73;;
80101;SDS011;69407;44.966;19.622;2023-11-19T17:02:32;29.70;;;14.65;;
80101;SDS011;69407;44.966;19.622;2023-11-19T17:04:58;25.88;;;12.50;;
80101;SDS011;69407;44.966;19.622;2023-11-19T17:07:23;21.88;;;11.25;;
80101;SDS011;69407;44.966;19.622;2023-11-19T17:09:50;32.83;;;18.23;;
80101;SDS011;69407;44.966;19.622;2023-11-19T17:12:16;26.48;;;15.27;;
80101;SDS011;69407;44.966;19.622;2023-11-19T17:14:41;25.85;;;12.73;;
80101;SDS011;69407;44.966;19.622;2023-11-19T17:17:07;19.23;;;8.90;;
80101;SDS011;69407;44.966;19.622;2023-11-19T17:19:32;14.70;;;8.15;;
80101;SDS011;69407;44.966;19.622;2023-11-19T17:21:58;18.65;;;8.93;;
80101;SDS011;69407;44.966;19.622;2023-11-19T17:24:24;13.20;;;7.88;;
80101;SDS011;69407;44.966;19.622;2023-11-19T17:26:49;16.92;;;7.07;;
80101;SDS011;69407;44.966;19.622;2023-11-19T17:29:15;17.27;;;10.05;;
80101;SDS011;69407;44.966;19.622;2023-11-19T17:31:42;42.78;;;23.27;;
80101;SDS011;69407;44.966;19.622;2023-11-19T17:34:09;17.52;;;9.63;;
80101;SDS011;69407;44.966;19.622;2023-11-19T17:36:35;21.40;;;12.48;;
80101;SDS011;69407;44.966;19.622;2023-11-19T17:39:00;43.33;;;17.08;;
80101;SDS011;69407;44.966;19.622;2023-11-19T17:41:29;36.60;;;14.93;;
80101;SDS011;69407;44.966;19.622;2023-11-19T17:43:54;47.47;;;21.25;;
80101;SDS011;69407;44.966;19.622;2023-11-19T17:46:20;30.13;;;14.73;;
80101;SDS011;69407;44.966;19.622;2023-11-19T17:48:46;38.67;;;17.55;;
80101;SDS011;69407;44.966;19.622;2023-11-19T17:51:12;34.17;;;16.33;;
80101;SDS011;69407;44.966;19.622;2023-11-19T17:53:38;26.65;;;13.95;;
80101;SDS011;69407;44.966;19.622;2023-11-19T17:56:03;27.88;;;13.05;;
80101;SDS011;69407;44.966;19.622;2023-11-19T17:58:29;31.77;;;16.10;;
80101;SDS011;69407;44.966;19.622;2023-11-19T18:00:56;32.35;;;17.60;;
80101;SDS011;69407;44.966;19.622;2023-11-19T18:03:22;29.63;;;16.02;;
80101;SDS011;69407;44.966;19.622;2023-11-19T18:05:47;30.50;;;16.33;;
80101;SDS011;69407;44.966;19.622;2023-11-19T18:08:13;29.55;;;17.58;;
80101;SDS011;69407;44.966;19.622;2023-11-19T18:10:42;34.80;;;18.63;;
80101;SDS011;69407;44.966;19.622;2023-11-19T18:13:08;26.17;;;15.07;;
80101;SDS011;69407;44.966;19.622;2023-11-19T18:15:34;24.77;;;13.93;;
80101;SDS011;69407;44.966;19.622;2023-11-19T18:17:59;23.65;;;14.60;;
80101;SDS011;69407;44.966;19.622;2023-11-19T18:20:26;23.48;;;13.90;;
80101;SDS011;69407;44.966;19.622;2023-11-19T18:22:51;22.50;;;11.65;;
80101;SDS011;69407;44.966;19.622;2023-11-19T18:25:19;19.25;;;10.25;;
80101;SDS011;69407;44.966;19.622;2023-11-19T18:27:46;18.52;;;9.88;;
80101;SDS011;69407;44.966;19.622;2023-11-19T18:30:14;21.83;;;11.85;;
80101;SDS011;69407;44.966;19.622;2023-11-19T18:32:41;22.20;;;12.10;;
80101;SDS011;69407;44.966;19.622;2023-11-19T18:35:07;28.92;;;14.07;;
80101;SDS011;69407;44.966;19.622;2023-11-19T18:37:37;27.83;;;13.90;;
80101;SDS011;69407;44.966;19.622;2023-11-19T18:40:04;29.77;;;13.75;;
80101;SDS011;69407;44.966;19.622;2023-11-19T18:42:30;32.53;;;14.18;;
80101;SDS011;69407;44.966;19.622;2023-11-19T18:44:56;29.63;;;15.05;;
80101;SDS011;69407;44.966;19.622;2023-11-19T18:47:21;30.92;;;15.10;;
80101;SDS011;69407;44.966;19.622;2023-11-19T18:49:47;48.80;;;24.95;;
80101;SDS011;69407;44.966;19.622;2023-11-19T18:52:14;48.20;;;23.92;;
80101;SDS011;69407;44.966;19.622;2023-11-19T18:54:40;26.23;;;13.80;;
80101;SDS011;69407;44.966;19.622;2023-11-19T18:57:06;23.98;;;12.73;;
80101;SDS011;69407;44.966;19.622;2023-11-19T18:59:31;23.90;;;13.15;;
80101;SDS011;69407;44.966;19.622;2023-11-19T19:01:57;20.92;;;11.43;;
80101;SDS011;69407;44.966;19.622;2023-11-19T19:04:23;24.92;;;13.15;;
80101;SDS011;69407;44.966;19.622;2023-11-19T19:06:48;38.42;;;19.13;;
80101;SDS011;69407;44.966;19.622;2023-11-19T19:09:14;45.47;;;23.83;;
80101;SDS011;69407;44.966;19.622;2023-11-19T19:11:43;46.22;;;25.30;;
80101;SDS011;69407;44.966;19.622;2023-11-19T19:14:09;63.80;;;31.40;;
80101;SDS011;69407;44.966;19.622;2023-11-19T19:16:38;115.35;;;51.55;;
80101;SDS011;69407;44.966;19.622;2023-11-19T19:19:04;92.35;;;46.20;;
80101;SDS011;69407;44.966;19.622;2023-11-19T19:21:30;85.53;;;41.88;;
80101;SDS011;69407;44.966;19.622;2023-11-19T19:23:56;96.78;;;45.90;;
80101;SDS011;69407;44.966;19.622;2023-11-19T19:26:28;85.10;;;40.10;;
80101;SDS011;69407;44.966;19.622;2023-11-19T19:28:56;64.35;;;32.15;;
80101;SDS011;69407;44.966;19.622;2023-11-19T19:31:21;55.70;;;28.70;;
80101;SDS011;69407;44.966;19.622;2023-11-19T19:33:49;48.47;;;26.98;;
80101;SDS011;69407;44.966;19.622;2023-11-19T19:36:22;46.78;;;26.27;;
80101;SDS011;69407;44.966;19.622;2023-11-19T19:38:47;52.13;;;25.33;;
80101;SDS011;69407;44.966;19.622;2023-11-19T19:41:13;49.83;;;25.15;;
80101;SDS011;69407;44.966;19.622;2023-11-19T19:43:39;46.60;;;26.42;;
80101;SDS011;69407;44.966;19.622;2023-11-19T19:46:05;47.58;;;26.08;;
80101;SDS011;69407;44.966;19.622;2023-11-19T19:48:34;45.33;;;23.77;;
80101;SDS011;69407;44.966;19.622;2023-11-19T19:51:00;53.75;;;28.95;;
80101;SDS011;69407;44.966;19.622;2023-11-19T19:53:26;127.50;;;55.72;;
80101;SDS011;69407;44.966;19.622;2023-11-19T19:55:52;188.77;;;83.78;;
80101;SDS011;69407;44.966;19.622;2023-11-19T19:58:21;142.95;;;64.68;;
80101;SDS011;69407;44.966;19.622;2023-11-19T20:00:47;67.70;;;34.08;;
80101;SDS011;69407;44.966;19.622;2023-11-19T20:03:13;60.17;;;31.60;;
80101;SDS011;69407;44.966;19.622;2023-11-19T20:05:39;56.83;;;30.45;;
80101;SDS011;69407;44.966;19.622;2023-11-19T20:08:06;75.28;;;39.60;;
80101;SDS011;69407;44.966;19.622;2023-11-19T20:10:32;73.53;;;37.08;;
80101;SDS011;69407;44.966;19.622;2023-11-19T20:12:58;73.35;;;36.75;;
80101;SDS011;69407;44.966;19.622;2023-11-19T20:15:26;75.20;;;35.03;;
80101;SDS011;69407;44.966;19.622;2023-11-19T20:17:51;65.07;;;32.17;;
80101;SDS011;69407;44.966;19.622;2023-11-19T20:20:17;62.95;;;32.65;;
80101;SDS011;69407;44.966;19.622;2023-11-19T20:22:43;74.10;;;34.97;;
80101;SDS011;69407;44.966;19.622;2023-11-19T20:25:08;76.30;;;37.15;;
80101;SDS011;69407;44.966;19.622;2023-11-19T20:27:35;84.88;;;39.53;;
80101;SDS011;69407;44.966;19.622;2023-11-19T20:30:01;76.05;;;36.63;;
80101;SDS011;69407;44.966;19.622;2023-11-19T20:32:27;73.88;;;37.00;;
80101;SDS011;69407;44.966;19.622;2023-11-19T20:34:53;78.80;;;38.25;;
80101;SDS011;69407;44.966;19.622;2023-11-19T20:37:19;79.75;;;39.25;;
80101;SDS011;69407;44.966;19.622;2023-11-19T20:39:44;88.30;;;42.58;;
80101;SDS011;69407;44.966;19.622;2023-11-19T20:42:10;112.07;;;53.92;;
80101;SDS011;69407;44.966;19.622;2023-11-19T20:44:37;114.18;;;48.72;;
80101;SDS011;69407;44.966;19.622;2023-11-19T20:47:03;106.47;;;47.85;;
80101;SDS011;69407;44.966;19.622;2023-11-19T20:49:32;98.60;;;45.72;;
80101;SDS011;69407;44.966;19.622;2023-11-19T20:51:57;92.25;;;42.95;;
80101;SDS011;69407;44.966;19.622;2023-11-19T20:54:23;63.15;;;28.42;;
80101;SDS011;69407;44.966;19.622;2023-11-19T20:56:48;44.28;;;22.40;;
80101;SDS011;69407;44.966;19.622;2023-11-19T20:59:14;46.70;;;22.27;;
80101;SDS011;69407;44.966;19.622;2023-11-19T21:01:41;32.08;;;16.58;;
80101;SDS011;69407;44.966;19.622;2023-11-19T21:04:08;31.00;;;16.88;;
80101;SDS011;69407;44.966;19.622;2023-11-19T21:06:33;40.15;;;17.40;;
80101;SDS011;69407;44.966;19.622;2023-11-19T21:08:59;33.75;;;16.35;;
80101;SDS011;69407;44.966;19.622;2023-11-19T21:11:25;33.15;;;16.52;;
80101;SDS011;69407;44.966;19.622;2023-11-19T21:13:50;37.88;;;19.00;;
80101;SDS011;69407;44.966;19.622;2023-11-19T21:16:15;34.63;;;16.20;;
80101;SDS011;69407;44.966;19.622;2023-11-19T21:18:41;38.47;;;18.95;;
80101;SDS011;69407;44.966;19.622;2023-11-19T21:21:06;55.13;;;24.00;;
80101;SDS011;69407;44.966;19.622;2023-11-19T21:23:32;70.93;;;32.38;;
80101;SDS011;69407;44.966;19.622;2023-11-19T21:25:58;110.45;;;47.47;;
80101;SDS011;69407;44.966;19.622;2023-11-19T21:28:28;132.50;;;54.25;;
80101;SDS011;69407;44.966;19.622;2023-11-19T21:30:57;80.75;;;35.25;;
80101;SDS011;69407;44.966;19.622;2023-11-19T21:33:24;100.63;;;44.35;;
80101;SDS011;69407;44.966;19.622;2023-11-19T21:35:53;103.57;;;45.22;;
80101;SDS011;69407;44.966;19.622;2023-11-19T21:38:19;126.65;;;47.38;;
80101;SDS011;69407;44.966;19.622;2023-11-19T21:40:46;185.02;;;73.68;;
80101;SDS011;69407;44.966;19.622;2023-11-19T21:43:18;145.60;;;60.60;;
80101;SDS011;69407;44.966;19.622;2023-11-19T21:45:44;165.60;;;65.00;;
80101;SDS011;69407;44.966;19.622;2023-11-19T21:48:10;163.82;;;68.20;;
80101;SDS011;69407;44.966;19.622;2023-11-19T21:50:36;183.23;;;77.65;;
80101;SDS011;69407;44.966;19.622;2023-11-19T21:53:01;227.73;;;95.50;;
80101;SDS011;69407;44.966;19.622;2023-11-19T21:55:27;209.95;;;86.30;;
80101;SDS011;69407;44.966;19.622;2023-11-19T21:57:53;222.38;;;92.07;;
80101;SDS011;69407;44.966;19.622;2023-11-19T22:00:19;254.20;;;103.80;;
80101;SDS011;69407;44.966;19.622;2023-11-19T22:02:44;243.55;;;100.70;;
80101;SDS011;69407;44.966;19.622;2023-11-19T22:05:10;236.65;;;96.13;;
80101;SDS011;69407;44.966;19.622;2023-11-19T22:07:36;237.95;;;99.45;;
80101;SDS011;69407;44.966;19.622;2023-11-19T22:10:02;219.90;;;92.70;;
80101;SDS011;69407;44.966;19.622;2023-11-19T22:12:29;193.23;;;80.75;;
80101;SDS011;69407;44.966;19.622;2023-11-19T22:14:56;190.18;;;75.38;;
80101;SDS011;69407;44.966;19.622;2023-11-19T22:17:21;168.45;;;71.07;;
80101;SDS011;69407;44.966;19.622;2023-11-19T22:19:47;166.88;;;72.50;;
80101;SDS011;69407;44.966;19.622;2023-11-19T22:22:13;186.25;;;72.68;;
80101;SDS011;69407;44.966;19.622;2023-11-19T22:24:40;174.02;;;73.07;;
80101;SDS011;69407;44.966;19.622;2023-11-19T22:27:05;196.38;;;79.45;;
80101;SDS011;69407;44.966;19.622;2023-11-19T22:29:31;194.38;;;80.30;;
80101;SDS011;69407;44.966;19.622;2023-11-19T22:31:58;204.57;;;85.15;;
80101;SDS011;69407;44.966;19.622;2023-11-19T22:34:24;209.02;;;85.40;;
80101;SDS011;69407;44.966;19.622;2023-11-19T22:36:49;189.90;;;79.07;;
80101;SDS011;69407;44.966;19.622;2023-11-19T22:39:16;174.43;;;73.10;;
80101;SDS011;69407;44.966;19.622;2023-11-19T22:41:42;176.48;;;77.07;;
80101;SDS011;69407;44.966;19.622;2023-11-19T22:44:08;172.50;;;75.22;;
80101;SDS011;69407;44.966;19.622;2023-11-19T22:46:34;173.48;;;71.88;;
80101;SDS011;69407;44.966;19.622;2023-11-19T22:49:02;173.40;;;72.88;;
80101;SDS011;69407;44.966;19.622;2023-11-19T22:51:29;157.43;;;70.85;;
80101;SDS011;69407;44.966;19.622;2023-11-19T22:53:55;160.93;;;67.78;;
80101;SDS011;69407;44.966;19.622;2023-11-19T22:56:21;164.18;;;69.65;;
80101;SDS011;69407;44.966;19.622;2023-11-19T22:58:47;159.93;;;66.20;;
80101;SDS011;69407;44.966;19.622;2023-11-19T23:01:17;158.77;;;67.90;;
80101;SDS011;69407;44.966;19.622;2023-11-19T23:03:43;161.38;;;67.53;;
80101;SDS011;69407;44.966;19.622;2023-11-19T23:06:10;159.60;;;68.35;;
80101;SDS011;69407;44.966;19.622;2023-11-19T23:08:36;149.70;;;63.33;;
80101;SDS011;69407;44.966;19.622;2023-11-19T23:11:02;145.55;;;67.30;;
80101;SDS011;69407;44.966;19.622;2023-11-19T23:13:28;146.93;;;70.38;;
80101;SDS011;69407;44.966;19.622;2023-11-19T23:15:53;158.75;;;71.30;;
80101;SDS011;69407;44.966;19.622;2023-11-19T23:18:19;167.02;;;74.50;;
80101;SDS011;69407;44.966;19.622;2023-11-19T23:20:44;165.05;;;74.18;;
80101;SDS011;69407;44.966;19.622;2023-11-19T23:23:10;161.02;;;70.28;;
80101;SDS011;69407;44.966;19.622;2023-11-19T23:25:35;151.65;;;68.95;;
80101;SDS011;69407;44.966;19.622;2023-11-19T23:28:00;161.68;;;69.82;;
80101;SDS011;69407;44.966;19.622;2023-11-19T23:30:26;162.98;;;73.68;;
80101;SDS011;69407;44.966;19.622;2023-11-19T23:32:51;157.38;;;69.00;;
80101;SDS011;69407;44.966;19.622;2023-11-19T23:35:17;151.95;;;66.35;;
80101;SDS011;69407;44.966;19.622;2023-11-19T23:37:42;164.48;;;72.53;;
80101;SDS011;69407;44.966;19.622;2023-11-19T23:40:08;170.95;;;76.88;;
80101;SDS011;69407;44.966;19.622;2023-11-19T23:42:34;167.60;;;72.88;;
80101;SDS011;69407;44.966;19.622;2023-11-19T23:45:00;160.82;;;73.45;;
80101;SDS011;69407;44.966;19.622;2023-11-19T23:47:25;158.65;;;71.10;;
80101;SDS011;69407;44.966;19.622;2023-11-19T23:49:51;167.30;;;75.10;;
80101;SDS011;69407;44.966;19.622;2023-11-19T23:52:18;165.80;;;72.43;;
80101;SDS011;69407;44.966;19.622;2023-11-19T23:54:43;146.70;;;66.22;;
80101;SDS011;69407;44.966;19.622;2023-11-19T23:57:09;145.60;;;63.63;;
80101;SDS011;69407;44.966;19.622;2023-11-19T23:59:35;138.82;;;65.38;;
